Skip Navigation Links
NOAA logo - Click to go to the NOAA homepage
NOAA's National Weather Service
Alaska Aviation Weather Unit
  NWS logo - Click to go to the NWS homepage
Left Navbar Graphic     22 AKDT = 06 GMT

   
NOAA is celebrating 200 years of science, service, and stewardship. Visit the NOAA 200th celebration Web site to learn more.
USA.gov is the U.S. Government's official Web portal to all Federal, state and local government Web resources and services.
Facebook
NWS on Facebook

Important Change Regarding the AAWU Web Presence

 

Over the last several months, the AAWU has been working to navigate its webpages to a nationally supported server. Security, as well as other needs, have necessitated the change.  We have been given an extension for the site changeover while we diligently work at addressing feedback received. As of July 14, 2017, aawu.arh.noaa.gov will be discontinued. The new AAWU web address is weather.gov/aawu. It is now live and will run in-parallel with the old site until it is discontinued on July 14, 2017. Please continue to send any feedback or questions regarding the new webpages to nws.ar.aawu.webauthors@noaa.gov.  Thank you for your patience during this time of transition.
AAWU Home :: Display TAF Add Bookmark
TAF PASD 260530Z 2606/2706 35008KT P6SM OVC015
     FM261800 34012KT P6SM SCT025 BKN040
      AMD LTD TO CLD VIS AND WIND=

PASD 260056Z 30010KT 10SM FEW016 SCT022 BKN031 15/11 A3006 RMK AO2 SLP181 DA T01500111= METAR PASD 260156Z 31009KT 10SM FEW017 SCT024 BKN035 16/11 A3006 RMK AO2 SLP180 DA T01560106= METAR PASD 260256Z 31007KT 10SM FEW016 SCT021 BKN030 14/10 A3006 RMK LAST DA= SPECI PASD 260314Z AUTO 32007KT 10SM OVC024 13/09 A3006 RMK AO2= METAR PASD 260356Z AUTO 35010KT 10SM BKN022 BKN028 OVC033 13/09 A3006 RMK AO2 SLP180 T01330094= METAR PASD 260456Z AUTO 35010KT 10SM OVC018 13/09 A3006 RMK AO2 SLP181 T01280094=
 Alaska TAF Map

NOAA's National Weather Service
Alaska Aviation Weather Unit
6930 Sand Lake Road
Anchorage, AK 99502-1845
Disclaimer
Credits
Glossary
Privacy Policy
About Us
Career Opportunities
Contact AAWU Internet Services Site last modified: April, 17th 2012